<?xml version="1.0" encoding="utf-8"?>
<gpx xmlns:xsi="http://www.w3.org/2001/XMLSchema-instance" xmlns:xsd="http://www.w3.org/2001/XMLSchema" version="1.1" creator="Shapelink.com" xmlns="http://www.topografix.com/GPX/1/1" xmlns:gpxtpx="http://www.garmin.com/xmlschemas/TrackPointExtension/v1">
  <metadata>
    <name>Övrigt 1.01 km, 2020-06-10</name>
    <desc></desc>
    <author><name>Marian Moron</name></author> 
    <time>2020-06-10T17:38:49Z</time>
  </metadata>
  <trk>
    <name>Övrigt 1.01 km, 2020-06-10</name>
    <trkseg>
      <trkpt lat="51.229742724711" lon="4.457976965983">
        <ele>3.8</ele>
        <time>2020-06-10T17:38:49Z</time>
      </trkpt>
      <trkpt lat="51.229788825161" lon="4.457912341534">
        <ele>3.2</ele>
        <time>2020-06-10T17:38:56Z</time>
      </trkpt>
      <trkpt lat="51.229808522626" lon="4.457209770676">
        <ele>7.6</ele>
        <time>2020-06-10T17:39:36Z</time>
      </trkpt>
      <trkpt lat="51.229875074912" lon="4.457060656675">
        <ele>8.6</ele>
        <time>2020-06-10T17:39:44Z</time>
      </trkpt>
      <trkpt lat="51.230175482208" lon="4.456361773853">
        <ele>3.8</ele>
        <time>2020-06-10T17:40:23Z</time>
      </trkpt>
      <trkpt lat="51.230621566926" lon="4.456256916284">
        <ele>4.6</ele>
        <time>2020-06-10T17:41:03Z</time>
      </trkpt>
      <trkpt lat="51.231062035771" lon="4.45609967184">
        <ele>6.6</ele>
        <time>2020-06-10T17:41:45Z</time>
      </trkpt>
      <trkpt lat="51.231036638614" lon="4.455902613371">
        <ele>0</ele>
        <time>2020-06-10T17:42:36Z</time>
      </trkpt>
      <trkpt lat="51.231136047948" lon="4.455869672504">
        <ele>0</ele>
        <time>2020-06-10T17:42:47Z</time>
      </trkpt>
      <trkpt lat="51.231164546408" lon="4.455738076674">
        <ele>0</ele>
        <time>2020-06-10T17:42:56Z</time>
      </trkpt>
      <trkpt lat="51.231137389052" lon="4.454993763954">
        <ele>0</ele>
        <time>2020-06-10T17:43:33Z</time>
      </trkpt>
      <trkpt lat="51.231044266143" lon="4.454278452608">
        <ele>0</ele>
        <time>2020-06-10T17:44:15Z</time>
      </trkpt>
      <trkpt lat="51.230851985357" lon="4.453622652752">
        <ele>0</ele>
        <time>2020-06-10T17:44:55Z</time>
      </trkpt>
      <trkpt lat="51.230759784457" lon="4.45289778604">
        <ele>0</ele>
        <time>2020-06-10T17:45:37Z</time>
      </trkpt>
      <trkpt lat="51.230616873062" lon="4.452199741408">
        <ele>0.8</ele>
        <time>2020-06-10T17:46:20Z</time>
      </trkpt>
      <trkpt lat="51.230535987727" lon="4.451486776994">
        <ele>0</ele>
        <time>2020-06-10T17:47:00Z</time>
      </trkpt>
      <trkpt lat="51.230364158777" lon="4.450824355437">
        <ele>0</ele>
        <time>2020-06-10T17:47:47Z</time>
      </trkpt>
      <trkpt lat="51.230256116086" lon="4.450844807273">
        <ele>0</ele>
        <time>2020-06-10T17:47:59Z</time>
      </trkpt>
      <trkpt lat="51.229812629757" lon="4.450953520516">
        <ele>0</ele>
        <time>2020-06-10T17:48:40Z</time>
      </trkpt>
      <trkpt lat="51.229530411184" lon="4.450497461337">
        <ele>0</ele>
        <time>2020-06-10T17:49:19Z</time>
      </trkpt>
      <trkpt lat="51.229432929687" lon="4.449794471384">
        <ele>6.8</ele>
        <time>2020-06-10T17:50:01Z</time>
      </trkpt>
      <trkpt lat="51.229341483158" lon="4.449080249685">
        <ele>8</ele>
        <time>2020-06-10T17:50:40Z</time>
      </trkpt>
      <trkpt lat="51.229118021704" lon="4.448452696832">
        <ele>7.4</ele>
        <time>2020-06-10T17:51:27Z</time>
      </trkpt>
      <trkpt lat="51.228751313579" lon="4.448890567288">
        <ele>0</ele>
        <time>2020-06-10T17:52:27Z</time>
      </trkpt>
      <trkpt lat="51.228456773613" lon="4.449305387519">
        <ele>0</ele>
        <time>2020-06-10T17:53:43Z</time>
      </trkpt>
    </trkseg>
  </trk>
</gpx>